Time;durP1;ratioP1;P1;durP2;ratioP2;P2;SDS_P1;SDS_P2;PMS_P1;PMS_P2;Temp;Humidity;BMP_temperature;BMP_pressure;BME280_temperature;BME280_humidity;BME280_pressure;Samples;Min_cycle;Max_cycle;Signal;HPM_P1;HPM_P2
2022/11/25 00:01:00;;;;;;;;;;;;;;;;;;4420066;32;20078;-72
2022/11/25 00:03:25;;;;;;;29.55;6.55;;;;;;;;;;4419687;32;19933;-73
2022/11/25 00:05:50;;;;;;;36.92;6.47;;;;;;;;;;4421592;32;20444;-72
2022/11/25 00:08:16;;;;;;;;;;;;;;;;;;4420271;32;20033;-70
2022/11/25 00:10:41;;;;;;;30.30;6.62;;;;;;;;;;4419454;32;19932;-71
2022/11/25 00:13:06;;;;;;;31.33;6.30;;;;;;;;;;4422710;32;20056;-71
2022/11/25 00:15:31;;;;;;;;;;;;;;;;;;4422466;32;20049;-70
2022/11/25 00:17:56;;;;;;;22.13;5.97;;;;;;;;;;4424476;32;19971;-71
2022/11/25 00:20:21;;;;;;;24.95;7.30;;;;;;;;;;4424144;32;20049;-70
2022/11/25 00:22:46;;;;;;;;;;;;;;;;;;4424974;32;20048;-71
2022/11/25 00:25:12;;;;;;;25.83;7.37;;;;;;;;;;4422375;32;19972;-71
2022/11/25 00:27:37;;;;;;;30.50;6.65;;;;;;;;;;4422692;32;20355;-72
2022/11/25 00:30:02;;;;;;;23.35;6.37;;;;;;;;;;4424393;32;20026;-71
2022/11/25 00:32:27;;;;;;;;;;;;;;;;;;4423298;32;20022;-72
2022/11/25 00:34:53;;;;;;;31.05;6.93;;;;;;;;;;4422295;32;19937;-72
2022/11/25 00:37:18;;;;;;;30.90;7.65;;;;;;;;;;4424131;32;20022;-71
2022/11/25 00:39:43;;;;;;;;;;;;;;;;;;4423009;32;20458;-71
2022/11/25 00:44:52;;;;;;;44.45;8.10;;;;;;;;;;4423967;32;20045;-70
2022/11/25 00:47:17;;;;;;;;;;;;;;;;;;4423194;32;20030;-71
2022/11/25 00:49:44;;;;;;;30.25;7.30;;;;;;;;;;4421921;32;19933;-71
2022/11/25 00:52:12;;;;;;;27.35;6.72;;;;;;;;;;4420523;32;20030;-71
2022/11/25 00:54:37;;;;;;;28.67;7.72;;;;;;;;;;4424355;32;20030;-70
2022/11/25 00:57:02;;;;;;;;;;;;;;;;;;4424062;32;20049;-70
2022/11/25 00:59:27;;;;;;;32.03;8.15;;;;;;;;;;4423230;32;19944;-69
2022/11/25 01:01:53;;;;;;;34.88;7.72;;;;;;;;;;4423115;32;20026;-69
2022/11/25 01:04:18;;;;;;;;;;;;;;;;;;4423381;32;20026;-70
2022/11/25 01:06:43;;;;;;;27.54;8.54;;;;;;;;;;4423437;32;20301;-70
2022/11/25 01:09:08;;;;;;;;;;;;;;;;;;4420857;32;20031;-70
2022/11/25 01:11:33;;;;;;;37.38;11.27;;;;;;;;;;4421895;32;19966;-70
2022/11/25 01:13:58;;;;;;;25.08;8.38;;;;;;;;;;4425170;32;20087;-70
2022/11/25 01:16:24;;;;;;;;;;;;;;;;;;4437733;32;20372;-70
2022/11/25 01:18:52;;;;;;;42.58;8.73;;;;;;;;;;4438268;32;20255;-70
2022/11/25 01:21:18;;;;;;;32.97;10.05;;;;;;;;;;4435933;32;20167;-69
2022/11/25 01:23:44;;;;;;;38.80;9.32;;;;;;;;;;4438388;32;20412;-70
2022/11/25 01:26:09;;;;;;;;;;;;;;;;;;4438386;32;20081;-69
2022/11/25 01:28:34;;;;;;;27.92;9.57;;;;;;;;;;4425607;32;19956;-69
2022/11/25 01:31:04;;;;;;;37.83;11.27;;;;;;;;;;4422986;32;20025;-69
2022/11/25 01:33:31;;;;;;;27.90;9.45;;;;;;;;;;4421566;32;20052;-69
2022/11/25 01:35:59;;;;;;;27.75;9.82;;;;;;;;;;4421790;32;20027;-69
2022/11/25 01:38:24;;;;;;;33.63;10.10;;;;;;;;;;4437518;27;20457;-76
2022/11/25 01:40:49;;;;;;;;;;;;;;;;;;4421492;32;20026;-77
2022/11/25 01:43:14;;;;;;;38.08;12.05;;;;;;;;;;4420261;32;19952;-77
2022/11/25 01:45:40;;;;;;;34.80;9.82;;;;;;;;;;4420298;32;20355;-77
2022/11/25 01:48:05;;;;;;;;;;;;;;;;;;4412627;32;20113;-77
2022/11/25 01:50:30;;;;;;;26.15;9.18;;;;;;;;;;4406900;32;19946;-76
2022/11/25 01:52:56;;;;;;;;;;;;;;;;;;4406905;32;20126;-77
2022/11/25 01:55:24;;;;;;;35.42;10.38;;;;;;;;;;4407130;32;20271;-77
2022/11/25 01:57:51;;;;;;;26.35;7.87;;;;;;;;;;4409051;32;20118;-76
2022/11/25 02:00:16;;;;;;;24.10;7.90;;;;;;;;;;4410738;32;20039;-76
2022/11/25 02:02:41;;;;;;;;;;;;;;;;;;4410503;32;20398;-76
2022/11/25 02:05:08;;;;;;;38.70;8.23;;;;;;;;;;4407193;32;19937;-76
2022/11/25 02:07:37;;;;;;;23.12;6.60;;;;;;;;;;4406737;32;20179;-75
2022/11/25 02:10:04;;;;;;;24.90;6.75;;;;;;;;;;4407439;32;20064;-76
2022/11/25 02:12:30;;;;;;;24.15;7.32;;;;;;;;;;4406155;32;20063;-76
2022/11/25 02:14:55;;;;;;;;;;;;;;;;;;4407942;32;20022;-77
2022/11/25 02:17:20;;;;;;;26.15;7.12;;;;;;;;;;4408405;32;20312;-75
2022/11/25 02:19:58;;;;;;;22.30;6.97;;;;;;;;;;4412181;32;20122;-76
2022/11/25 02:22:42;;;;;;;24.17;6.55;;;;;;;;;;4409380;32;20294;-76
2022/11/25 02:25:10;;;;;;;29.95;6.93;;;;;;;;;;4407013;32;20026;-75
2022/11/25 02:27:35;;;;;;;26.00;5.80;;;;;;;;;;4405579;32;20030;-76
2022/11/25 02:30:00;;;;;;;;;;;;;;;;;;4406876;32;20049;-75
2022/11/25 02:32:25;;;;;;;24.60;6.07;;;;;;;;;;4407597;32;20356;-75
2022/11/25 02:34:50;;;;;;;16.52;4.72;;;;;;;;;;4405755;32;20034;-75
2022/11/25 02:37:15;;;;;;;;;;;;;;;;;;4406892;32;20460;-76
2022/11/25 02:39:41;;;;;;;23.17;5.37;;;;;;;;;;4419171;32;19940;-75
2022/11/25 02:42:06;;;;;;;;;;;;;;;;;;4421016;32;20473;-75
2022/11/25 02:44:31;;;;;;;20.15;4.57;;;;;;;;;;4421856;32;19953;-74
2022/11/25 02:46:56;;;;;;;23.17;5.55;;;;;;;;;;4435235;32;20030;-74
2022/11/25 02:49:21;;;;;;;16.48;4.78;;;;;;;;;;4436479;32;20026;-74
2022/11/25 02:51:47;;;;;;;20.02;6.32;;;;;;;;;;4436310;32;20477;-74
2022/11/25 02:54:14;;;;;;;21.20;5.80;;;;;;;;;;4437575;32;20138;-75
2022/11/25 02:56:39;;;;;;;16.75;4.37;;;;;;;;;;4435445;32;20051;-75
2022/11/25 02:59:05;;;;;;;;;;;;;;;;;;4437175;32;20021;-75
2022/11/25 03:01:30;;;;;;;17.85;4.03;;;;;;;;;;4434930;32;20004;-74
2022/11/25 03:03:55;;;;;;;;;;;;;;;;;;4436340;32;20148;-74
2022/11/25 03:06:20;;;;;;;18.72;3.76;;;;;;;;;;4435849;32;19940;-74
2022/11/25 03:08:45;;;;;;;;;;;;;;;;;;4437924;32;20354;-74
2022/11/25 03:11:11;;;;;;;10.40;3.40;;;;;;;;;;4436744;32;19961;-74
2022/11/25 03:13:36;;;;;;;11.25;4.40;;;;;;;;;;4437534;32;20025;-73
2022/11/25 03:16:01;;;;;;;16.10;4.18;;;;;;;;;;4426884;32;20023;-75
2022/11/25 03:18:27;;;;;;;16.02;4.22;;;;;;;;;;4434820;32;20022;-74
2022/11/25 03:20:52;;;;;;;18.42;4.25;;;;;;;;;;4435415;32;20029;-75
2022/11/25 03:23:18;;;;;;;13.55;3.90;;;;;;;;;;4435135;32;20084;-75
2022/11/25 03:25:43;;;;;;;;;;;;;;;;;;4434607;32;20446;-73
2022/11/25 03:28:08;;;;;;;10.57;3.45;;;;;;;;;;4435940;32;19979;-73
2022/11/25 03:30:33;;;;;;;11.55;3.65;;;;;;;;;;4435902;32;20390;-74
2022/11/25 03:32:58;;;;;;;17.17;3.83;;;;;;;;;;4435754;32;20048;-73
2022/11/25 03:35:24;;;;;;;;;;;;;;;;;;4435882;32;20044;-73
2022/11/25 03:37:49;;;;;;;12.48;2.45;;;;;;;;;;4437226;32;19944;-73
2022/11/25 03:40:14;;;;;;;;;;;;;;;;;;4437300;32;20212;-73
2022/11/25 03:42:40;;;;;;;13.90;3.35;;;;;;;;;;4437841;32;19952;-73
2022/11/25 03:45:05;;;;;;;13.85;3.92;;;;;;;;;;4427827;32;20090;-73
2022/11/25 03:47:31;;;;;;;;;;;;;;;;;;4420635;32;20030;-73
2022/11/25 03:49:56;;;;;;;7.57;2.58;;;;;;;;;;4423585;32;19969;-73
2022/11/25 03:52:21;;;;;;;11.05;3.00;;;;;;;;;;4424743;32;20045;-73
2022/11/25 03:54:46;;;;;;;;;;;;;;;;;;4423298;32;20026;-72
2022/11/25 03:57:11;;;;;;;8.60;2.60;;;;;;;;;;4421659;32;19960;-72
2022/11/25 03:59:36;;;;;;;7.28;1.90;;;;;;;;;;4422679;32;20018;-71
2022/11/25 04:02:02;;;;;;;;;;;;;;;;;;4423623;32;20022;-72
2022/11/25 04:04:27;;;;;;;6.65;1.92;;;;;;;;;;4423346;32;19958;-72
2022/11/25 04:06:52;;;;;;;5.85;1.67;;;;;;;;;;4423513;32;20026;-72
2022/11/25 04:09:17;;;;;;;;;;;;;;;;;;4424819;32;20080;-72
2022/11/25 04:14:26;;;;;;;7.50;2.62;;;;;;;;;;4429538;32;20033;-71
2022/11/25 04:16:51;;;;;;;;;;;;;;;;;;4440793;32;20327;-72
2022/11/25 04:19:17;;;;;;;8.32;2.75;;;;;;;;;;4438826;32;19957;-72
2022/11/25 04:21:42;;;;;;;12.57;3.50;;;;;;;;;;4438403;32;20048;-72
2022/11/25 04:24:07;;;;;;;6.97;3.10;;;;;;;;;;4438235;32;20057;-72
2022/11/25 04:26:32;;;;;;;;;;;;;;;;;;4439426;32;20367;-72
2022/11/25 04:28:58;;;;;;;9.23;4.20;;;;;;;;;;4438330;32;20009;-72
2022/11/25 04:31:23;;;;;;;8.60;3.20;;;;;;;;;;4438789;32;20093;-72
2022/11/25 04:33:48;;;;;;;;;;;;;;;;;;4438826;32;20085;-72
2022/11/25 04:36:13;;;;;;;11.63;4.00;;;;;;;;;;4426997;32;19933;-72
2022/11/25 04:38:38;;;;;;;;;;;;;;;;;;4422013;32;20106;-72
2022/11/25 04:41:04;;;;;;;9.52;3.80;;;;;;;;;;4422644;32;20279;-71
2022/11/25 04:43:29;;;;;;;;;;;;;;;;;;4424485;32;20560;-72
2022/11/25 04:45:54;;;;;;;11.63;3.95;;;;;;;;;;4422758;32;19933;-72
2022/11/25 04:48:20;;;;;;;7.87;3.33;;;;;;;;;;4422116;32;20038;-71
2022/11/25 04:50:45;;;;;;;;;;;;;;;;;;4422656;32;20026;-72
2022/11/25 04:53:10;;;;;;;11.73;3.67;;;;;;;;;;4423439;32;19934;-71
2022/11/25 04:55:35;;;;;;;9.98;3.80;;;;;;;;;;4422653;32;20044;-71
2022/11/25 04:58:00;;;;;;;;;;;;;;;;;;4422349;32;20056;-70
2022/11/25 05:00:26;;;;;;;12.15;3.70;;;;;;;;;;4424358;32;19963;-71
2022/11/25 05:02:51;;;;;;;10.93;3.78;;;;;;;;;;4434898;32;20046;-72
2022/11/25 05:05:16;;;;;;;;;;;;;;;;;;4429430;32;20450;-71
2022/11/25 05:07:41;;;;;;;10.00;3.90;;;;;;;;;;4436765;32;19951;-71
2022/11/25 05:10:07;;;;;;;9.98;4.30;;;;;;;;;;4439349;32;20026;-71
2022/11/25 05:12:32;;;;;;;;;;;;;;;;;;4438611;32;20412;-71
2022/11/25 05:14:57;;;;;;;10.05;4.37;;;;;;;;;;4437375;32;19997;-71
2022/11/25 05:17:22;;;;;;;;;;;;;;;;;;4439586;32;20125;-70
2022/11/25 05:19:48;;;;;;;12.32;4.75;;;;;;;;;;4437545;32;19985;-70
2022/11/25 05:22:15;;;;;;;14.13;5.43;;;;;;;;;;4437168;32;20038;-71
2022/11/25 05:24:40;;;;;;;9.02;3.75;;;;;;;;;;4432857;32;20034;-71
2022/11/25 05:27:05;;;;;;;;;;;;;;;;;;4422144;32;20057;-72
2022/11/25 05:29:30;;;;;;;11.82;5.12;;;;;;;;;;4422664;32;19972;-71
2022/11/25 05:31:55;;;;;;;11.98;4.50;;;;;;;;;;4421566;32;20030;-69
2022/11/25 05:34:20;;;;;;;;;;;;;;;;;;4422197;32;20068;-72
2022/11/25 05:36:46;;;;;;;12.23;4.35;;;;;;;;;;4421163;32;19999;-70
2022/11/25 05:39:11;;;;;;;12.18;4.90;;;;;;;;;;4421781;32;20038;-71
2022/11/25 05:41:36;;;;;;;;;;;;;;;;;;4423650;32;20026;-70
2022/11/25 05:44:01;;;;;;;10.52;4.60;;;;;;;;;;4422300;32;20382;-70
2022/11/25 05:46:26;;;;;;;;;;;;;;;;;;4422067;32;20186;-71
2022/11/25 05:48:53;;;;;;;11.65;4.03;;;;;;;;;;4421620;32;19952;-70
2022/11/25 05:51:18;;;;;;;12.20;4.03;;;;;;;;;;4421328;32;20080;-71
2022/11/25 05:53:43;;;;;;;;;;;;;;;;;;4422285;32;20018;-71
2022/11/25 05:56:08;;;;;;;14.23;5.40;;;;;;;;;;4423138;32;19979;-70
2022/11/25 05:58:33;;;;;;;;;;;;;;;;;;4421532;32;20156;-70
2022/11/25 06:00:59;;;;;;;14.32;3.90;;;;;;;;;;4422833;32;19987;-69
2022/11/25 06:03:24;;;;;;;;;;;;;;;;;;4421613;32;20114;-71
2022/11/25 06:05:49;;;;;;;10.98;4.47;;;;;;;;;;4421862;32;19964;-70
2022/11/25 06:08:14;;;;;;;;;;;;;;;;;;4421576;32;20568;-71
2022/11/25 06:10:39;;;;;;;8.50;3.33;;;;;;;;;;4421945;32;19932;-70
2022/11/25 06:13:05;;;;;;;12.25;3.80;;;;;;;;;;4421315;32;20052;-70
2022/11/25 06:15:30;;;;;;;;;;;;;;;;;;4422321;32;20021;-70
2022/11/25 06:17:55;;;;;;;10.55;4.43;;;;;;;;;;4434230;32;19967;-70
2022/11/25 06:20:20;;;;;;;17.00;4.60;;;;;;;;;;4437914;32;20363;-71
2022/11/25 06:22:46;;;;;;;;;;;;;;;;;;4438650;32;20445;-70
2022/11/25 06:25:11;;;;;;;13.62;4.05;;;;;;;;;;4438538;32;19933;-71
2022/11/25 06:27:36;;;;;;;;;;;;;;;;;;4435546;32;20403;-71
2022/11/25 06:30:01;;;;;;;14.98;5.10;;;;;;;;;;4436364;32;20019;-70
2022/11/25 06:32:26;;;;;;;12.82;5.45;;;;;;;;;;4436627;32;20041;-71
2022/11/25 06:34:51;;;;;;;;;;;;;;;;;;4427103;32;20030;-70
2022/11/25 06:37:17;;;;;;;12.30;4.62;;;;;;;;;;4429053;32;20354;-70
2022/11/25 06:39:42;;;;;;;18.55;4.87;;;;;;;;;;4425439;32;20080;-71
2022/11/25 06:42:07;;;;;;;;;;;;;;;;;;4428001;32;20521;-71
2022/11/25 06:44:32;;;;;;;20.67;4.97;;;;;;;;;;4426419;32;19973;-71
2022/11/25 06:46:57;;;;;;;14.02;4.55;;;;;;;;;;4426371;32;20171;-70
2022/11/25 06:49:22;;;;;;;;;;;;;;;;;;4427797;32;20030;-71
2022/11/25 06:51:48;;;;;;;18.65;4.20;;;;;;;;;;4426732;32;19974;-71
2022/11/25 06:54:13;;;;;;;21.00;5.32;;;;;;;;;;4426107;32;20029;-71
2022/11/25 06:56:38;;;;;;;;;;;;;;;;;;4429111;32;20118;-71
2022/11/25 06:59:04;;;;;;;12.38;4.40;;;;;;;;;;4419001;32;20387;-70
2022/11/25 07:01:29;;;;;;;;;;;;;;;;;;4428462;32;20059;-70
2022/11/25 07:03:57;;;;;;;15.00;4.90;;;;;;;;;;4427432;32;20352;-71
2022/11/25 07:06:22;;;;;;;18.00;5.00;;;;;;;;;;4427617;32;20061;-71
2022/11/25 07:08:47;;;;;;;;;;;;;;;;;;4427136;32;20033;-71
2022/11/25 07:11:20;;;;;;;14.18;5.90;;;;;;;;;;4419366;32;20338;-70
2022/11/25 07:13:46;;;;;;;12.77;8.05;;;;;;;;;;4417500;32;20072;-71
2022/11/25 07:16:11;;;;;;;;;;;;;;;;;;4419623;32;20105;-71
2022/11/25 07:18:37;;;;;;;19.48;8.20;;;;;;;;;;4418495;32;19937;-71
2022/11/25 07:21:04;;;;;;;15.98;4.95;;;;;;;;;;4420386;32;20061;-71
2022/11/25 07:23:29;;;;;;;20.25;6.43;;;;;;;;;;4419728;32;20068;-71
2022/11/25 07:25:54;;;;;;;;;;;;;;;;;;4421566;32;20026;-70
2022/11/25 07:28:19;;;;;;;21.45;6.50;;;;;;;;;;4420811;32;19975;-70
2022/11/25 07:30:44;;;;;;;17.77;5.07;;;;;;;;;;4421318;32;20388;-71
2022/11/25 07:33:09;;;;;;;;;;;;;;;;;;4420232;32;20026;-71
2022/11/25 07:35:35;;;;;;;21.37;5.35;;;;;;;;;;4420329;32;19951;-71
2022/11/25 07:38:00;;;;;;;16.20;5.28;;;;;;;;;;4421165;32;20384;-71
2022/11/25 07:40:25;;;;;;;;;;;;;;;;;;4420835;32;20064;-71
2022/11/25 07:42:50;;;;;;;12.27;3.95;;;;;;;;;;4421021;32;19988;-72
2022/11/25 07:45:15;;;;;;;;;;;;;;;;;;4422339;32;20194;-70
2022/11/25 07:47:40;;;;;;;19.37;5.90;;;;;;;;;;4424422;32;19952;-70
2022/11/25 07:50:05;;;;;;;;;;;;;;;;;;4429712;32;20129;-70
2022/11/25 07:52:31;;;;;;;26.87;6.40;;;;;;;;;;4424508;32;19944;-71
2022/11/25 07:54:56;;;;;;;9.32;4.50;;;;;;;;;;4420589;32;20321;-70
2022/11/25 07:57:21;;;;;;;;;;;;;;;;;;4420681;32;20366;-71
2022/11/25 07:59:46;;;;;;;13.98;4.37;;;;;;;;;;4419748;32;19945;-70
2022/11/25 08:02:11;;;;;;;11.63;5.30;;;;;;;;;;4421278;32;20082;-71
2022/11/25 08:04:36;;;;;;;;;;;;;;;;;;4421098;32;20086;-70
2022/11/25 08:07:02;;;;;;;9.23;4.53;;;;;;;;;;4421907;32;19941;-71
2022/11/25 08:09:27;;;;;;;;;;;;;;;;;;4421443;32;20129;-70
2022/11/25 08:11:52;;;;;;;14.13;5.68;;;;;;;;;;4422333;32;19966;-70
2022/11/25 08:14:17;;;;;;;;;;;;;;;;;;4420284;32;20224;-70
2022/11/25 08:16:43;;;;;;;11.00;4.28;;;;;;;;;;4420050;32;20208;-71
2022/11/25 08:19:10;;;;;;;;;;;;;;;;;;4421477;32;20054;-70
2022/11/25 08:21:35;;;;;;;13.05;4.03;;;;;;;;;;4423979;32;20726;-70
2022/11/25 08:24:01;;;;;;;;;;;;;;;;;;4419255;32;20026;-70
2022/11/25 08:26:32;;;;;;;7.50;2.85;;;;;;;;;;4419980;32;19996;-70
2022/11/25 08:28:58;;;;;;;8.13;3.00;;;;;;;;;;4419278;32;20021;-70
2022/11/25 08:31:23;;;;;;;;;;;;;;;;;;4420646;32;20132;-70
2022/11/25 08:33:49;;;;;;;9.30;2.90;;;;;;;;;;4420146;32;20002;-71
2022/11/25 08:36:14;;;;;;;7.87;3.30;;;;;;;;;;4422568;32;20444;-70
2022/11/25 08:38:40;;;;;;;16.15;3.58;;;;;;;;;;4422588;32;20018;-70
2022/11/25 08:41:05;;;;;;;;;;;;;;;;;;4426701;32;20048;-70
2022/11/25 08:43:30;;;;;;;12.00;3.12;;;;;;;;;;4438749;32;20295;-70
2022/11/25 08:45:55;;;;;;;15.00;2.75;;;;;;;;;;4435031;32;20109;-71
2022/11/25 08:48:20;;;;;;;;;;;;;;;;;;4425700;32;20373;-71
2022/11/25 08:50:51;;;;;;;20.45;4.62;;;;;;;;;;4439439;32;19948;-69
2022/11/25 08:53:16;;;;;;;8.07;3.08;;;;;;;;;;4432328;32;21421;-71
2022/11/25 08:55:41;;;;;;;;;;;;;;;;;;4437817;32;20097;-70
2022/11/25 08:58:09;;;;;;;6.57;3.58;;;;;;;;;;4436307;32;19962;-70
2022/11/25 09:00:34;;;;;;;10.05;3.12;;;;;;;;;;4439263;32;20197;-70
2022/11/25 09:02:59;;;;;;;;;;;;;;;;;;4436846;32;20413;-71
2022/11/25 09:05:25;;;;;;;12.95;3.25;;;;;;;;;;4437826;32;20305;-70
2022/11/25 09:07:50;;;;;;;11.40;2.87;;;;;;;;;;4439372;32;20033;-70
2022/11/25 09:10:15;;;;;;;;;;;;;;;;;;4439905;32;20063;-70
2022/11/25 09:12:41;;;;;;;11.35;3.10;;;;;;;;;;4439502;32;19941;-70
2022/11/25 09:15:06;;;;;;;;;;;;;;;;;;4438408;32;20101;-70
2022/11/25 09:17:33;;;;;;;17.40;3.72;;;;;;;;;;4436956;32;20356;-70
2022/11/25 09:19:58;;;;;;;14.20;4.10;;;;;;;;;;4436990;32;20440;-70
2022/11/25 09:22:23;;;;;;;;;;;;;;;;;;4437888;32;20026;-71
2022/11/25 09:24:48;;;;;;;10.00;4.05;;;;;;;;;;4436101;32;19987;-70
2022/11/25 09:27:14;;;;;;;20.40;4.50;;;;;;;;;;4436508;32;20033;-71
2022/11/25 09:29:39;;;;;;;;;;;;;;;;;;4436101;32;20025;-70
2022/11/25 09:32:04;;;;;;;10.32;3.50;;;;;;;;;;4435930;32;19996;-70
2022/11/25 09:34:29;;;;;;;;;;;;;;;;;;4435931;32;20379;-70
2022/11/25 09:36:55;;;;;;;13.43;3.10;;;;;;;;;;4435798;32;19932;-71
2022/11/25 09:39:20;;;;;;;15.43;3.08;;;;;;;;;;4435512;32;20083;-70
2022/11/25 09:47:22;;;;;;;13.10;3.12;;;;;;;;;;4437068;32;20430;-69
2022/11/25 09:50:07;;;;;;;11.45;2.83;;;;;;;;;;4435454;32;20021;-70
2022/11/25 09:52:36;;;;;;;10.27;2.50;;;;;;;;;;4437784;32;20392;-69
2022/11/25 09:55:07;;;;;;;14.98;3.42;;;;;;;;;;4437272;32;20026;-71
2022/11/25 09:57:49;;;;;;;13.80;3.53;;;;;;;;;;4436710;32;20025;-70
2022/11/25 10:00:15;;;;;;;12.60;3.53;;;;;;;;;;4436047;32;20021;-71
2022/11/25 10:02:54;;;;;;;14.07;3.20;;;;;;;;;;4434486;32;20084;-69
2022/11/25 10:05:25;;;;;;;10.55;2.67;;;;;;;;;;4419410;32;20029;-69
2022/11/25 10:07:57;;;;;;;13.10;2.75;;;;;;;;;;4422448;32;20156;-70
2022/11/25 10:10:27;;;;;;;14.95;3.10;;;;;;;;;;4422135;32;20048;-70
2022/11/25 10:12:54;;;;;;;17.33;3.03;;;;;;;;;;4422914;32;20348;-70
2022/11/25 10:15:22;;;;;;;11.52;3.95;;;;;;;;;;4420828;32;20026;-69
2022/11/25 10:17:49;;;;;;;15.52;3.05;;;;;;;;;;4422591;32;20068;-70
2022/11/25 10:20:18;;;;;;;7.68;2.80;;;;;;;;;;4422329;32;20034;-69
2022/11/25 10:22:45;;;;;;;13.70;3.05;;;;;;;;;;4420653;32;20021;-69
2022/11/25 10:25:15;;;;;;;74.32;10.93;;;;;;;;;;4419880;32;20329;-70
2022/11/25 10:27:46;;;;;;;40.47;5.37;;;;;;;;;;4419645;32;20029;-69
2022/11/25 10:30:16;;;;;;;13.68;3.35;;;;;;;;;;4422635;32;20051;-69
2022/11/25 10:32:44;;;;;;;11.73;3.25;;;;;;;;;;4422168;32;20044;-70
2022/11/25 10:35:19;;;;;;;15.75;4.28;;;;;;;;;;4420459;32;20058;-70
2022/11/25 10:37:47;;;;;;;14.00;3.37;;;;;;;;;;4420771;32;20022;-69
2022/11/25 10:40:13;;;;;;;18.33;3.95;;;;;;;;;;4418362;32;20060;-70
2022/11/25 10:42:38;;;;;;;14.32;4.53;;;;;;;;;;4419462;32;20103;-69
2022/11/25 10:45:07;;;;;;;;;;;;;;;;;;4421844;32;20372;-70
2022/11/25 10:47:33;;;;;;;12.75;3.50;;;;;;;;;;4421784;32;19954;-70
2022/11/25 10:49:58;;;;;;;;;;;;;;;;;;4420231;32;20058;-70
2022/11/25 10:52:26;;;;;;;14.80;4.10;;;;;;;;;;4420196;32;19934;-70
2022/11/25 10:55:12;;;;;;;13.05;3.22;;;;;;;;;;4420151;32;20068;-70
2022/11/25 10:57:37;;;;;;;22.40;4.85;;;;;;;;;;4420744;32;20090;-71
2022/11/25 11:00:03;;;;;;;;;;;;;;;;;;4420725;32;20108;-70
2022/11/25 11:02:28;;;;;;;15.95;3.28;;;;;;;;;;4420756;32;19999;-70
2022/11/25 11:04:53;;;;;;;;;;;;;;;;;;4419683;32;20344;-69
2022/11/25 11:07:19;;;;;;;11.70;3.05;;;;;;;;;;4420784;32;19937;-70
2022/11/25 11:09:45;;;;;;;13.05;3.30;;;;;;;;;;4421133;32;20118;-70
2022/11/25 11:12:23;;;;;;;14.48;5.18;;;;;;;;;;4419995;32;20090;-70
2022/11/25 11:14:49;;;;;;;15.50;3.50;;;;;;;;;;4420317;32;20103;-71
2022/11/25 11:17:29;;;;;;;12.18;3.53;;;;;;;;;;4420485;32;20396;-71
2022/11/25 11:20:00;;;;;;;20.75;3.72;;;;;;;;;;4419713;32;20049;-71
2022/11/25 11:22:26;;;;;;;15.48;4.12;;;;;;;;;;4428753;32;20081;-71
2022/11/25 11:25:03;;;;;;;15.43;3.62;;;;;;;;;;4425679;32;20064;-71
2022/11/25 11:27:29;;;;;;;11.93;3.00;;;;;;;;;;4429083;32;20073;-70
2022/11/25 11:30:09;;;;;;;12.77;3.30;;;;;;;;;;4428004;32;20034;-71
2022/11/25 11:32:43;;;;;;;11.05;4.12;;;;;;;;;;4427348;32;20086;-68
2022/11/25 11:35:19;;;;;;;17.40;3.45;;;;;;;;;;4418672;32;20103;-71
2022/11/25 11:37:46;;;;;;;15.70;3.63;;;;;;;;;;4419320;32;20050;-70
2022/11/25 11:40:15;;;;;;;12.55;3.00;;;;;;;;;;4425763;32;20053;-70
2022/11/25 11:42:40;;;;;;;16.48;3.45;;;;;;;;;;4427746;32;20042;-71
2022/11/25 11:45:06;;;;;;;;;;;;;;;;;;4428503;32;20098;-70
2022/11/25 11:47:37;;;;;;;12.60;3.03;;;;;;;;;;4427408;32;19980;-70
2022/11/25 11:50:22;;;;;;;17.10;3.58;;;;;;;;;;4425647;32;20075;-70
2022/11/25 11:52:47;;;;;;;16.50;3.42;;;;;;;;;;4421580;32;20042;-70
2022/11/25 11:55:19;;;;;;;15.68;3.78;;;;;;;;;;4417999;32;20471;-70
2022/11/25 11:58:08;;;;;;;17.10;3.78;;;;;;;;;;4418583;32;20121;-70
2022/11/25 12:00:37;;;;;;;19.12;3.03;;;;;;;;;;4428302;32;20048;-69
2022/11/25 12:03:11;;;;;;;17.17;3.37;;;;;;;;;;4427756;32;20085;-72
2022/11/25 12:05:37;;;;;;;19.30;3.58;;;;;;;;;;4425239;32;20056;-70
2022/11/25 12:08:02;;;;;;;;;;;;;;;;;;4418330;32;20053;-70
2022/11/25 12:10:41;;;;;;;17.48;4.70;;;;;;;;;;4427935;32;19995;-70
2022/11/25 12:13:31;;;;;;;16.60;3.08;;;;;;;;;;4430432;32;20177;-71
2022/11/25 12:15:59;;;;;;;27.35;4.47;;;;;;;;;;4428117;32;20045;-70
2022/11/25 12:18:30;;;;;;;15.90;3.47;;;;;;;;;;4430297;32;20061;-70
2022/11/25 12:21:04;;;;;;;13.65;3.58;;;;;;;;;;4420010;32;20061;-72
2022/11/25 12:23:39;;;;;;;13.40;4.07;;;;;;;;;;4427764;32;20069;-71
2022/11/25 12:26:08;;;;;;;16.15;3.65;;;;;;;;;;4428588;32;20026;-71
2022/11/25 12:28:36;;;;;;;15.23;3.62;;;;;;;;;;4427663;32;20118;-70
2022/11/25 12:31:11;;;;;;;13.77;3.83;;;;;;;;;;4428882;32;20029;-70
2022/11/25 12:33:48;;;;;;;14.95;4.22;;;;;;;;;;4430333;32;20034;-71
2022/11/25 12:36:13;;;;;;;;;;;;;;;;;;4429483;32;20071;-71
2022/11/25 12:38:50;;;;;;;16.43;4.37;;;;;;;;;;4426482;32;20370;-71
2022/11/25 12:41:31;;;;;;;13.95;3.75;;;;;;;;;;4428827;32;20062;-72
2022/11/25 12:43:59;;;;;;;20.27;3.20;;;;;;;;;;4429756;32;20083;-71
2022/11/25 12:46:31;;;;;;;15.70;3.33;;;;;;;;;;4428149;32;20060;-71
2022/11/25 12:48:57;;;;;;;20.33;4.00;;;;;;;;;;4427221;32;20057;-71
2022/11/25 12:51:41;;;;;;;32.42;4.05;;;;;;;;;;4428844;32;20374;-71
2022/11/25 12:54:18;;;;;;;31.23;6.30;;;;;;;;;;4420385;32;20115;-71
2022/11/25 12:57:01;;;;;;;20.90;3.80;;;;;;;;;;4429467;32;20030;-70
2022/11/25 12:59:45;;;;;;;18.90;4.37;;;;;;;;;;4420569;32;20478;-71
2022/11/25 13:02:19;;;;;;;19.83;4.90;;;;;;;;;;4430219;32;20076;-71
2022/11/25 13:04:57;;;;;;;23.50;4.53;;;;;;;;;;4428858;32;20388;-71
2022/11/25 13:07:24;;;;;;;21.23;5.10;;;;;;;;;;4429868;32;20110;-69
2022/11/25 13:10:09;;;;;;;24.25;4.82;;;;;;;;;;4428469;32;20034;-70
2022/11/25 13:12:43;;;;;;;25.67;5.87;;;;;;;;;;4428717;32;20077;-71
2022/11/25 13:15:14;;;;;;;27.17;3.95;;;;;;;;;;4428045;32;20458;-70
2022/11/25 13:17:40;;;;;;;16.73;4.28;;;;;;;;;;4427171;32;20061;-70
2022/11/25 13:20:31;;;;;;;22.23;5.40;;;;;;;;;;4420116;32;20073;-71
2022/11/25 13:23:01;;;;;;;16.15;4.32;;;;;;;;;;4430923;32;20056;-70
2022/11/25 13:25:28;;;;;;;17.08;3.90;;;;;;;;;;4425451;32;20050;-70
2022/11/25 13:27:53;;;;;;;14.57;3.83;;;;;;;;;;4425672;32;20038;-70
2022/11/25 13:30:31;;;;;;;15.88;4.55;;;;;;;;;;4428251;32;20484;-72
2022/11/25 13:32:56;;;;;;;23.15;4.65;;;;;;;;;;4429133;32;20187;-71
2022/11/25 13:35:23;;;;;;;24.33;4.12;;;;;;;;;;4420237;32;20093;-70
2022/11/25 13:37:48;;;;;;;19.83;4.18;;;;;;;;;;4424659;32;20060;-70
2022/11/25 13:40:28;;;;;;;17.50;4.28;;;;;;;;;;4426575;32;20082;-71
2022/11/25 13:42:54;;;;;;;19.92;3.95;;;;;;;;;;4424727;32;20041;-70
2022/11/25 13:45:28;;;;;;;24.90;5.40;;;;;;;;;;4430373;32;20072;-70
2022/11/25 13:47:54;;;;;;;23.27;5.22;;;;;;;;;;4426942;32;20056;-71
2022/11/25 13:50:23;;;;;;;16.00;4.78;;;;;;;;;;4427059;32;20129;-70
2022/11/25 13:52:59;;;;;;;18.40;4.90;;;;;;;;;;4426727;32;20034;-72
2022/11/25 13:55:32;;;;;;;20.00;4.32;;;;;;;;;;4427228;32;20397;-71
2022/11/25 13:58:02;;;;;;;22.13;4.75;;;;;;;;;;4426784;32;20060;-70
2022/11/25 14:00:30;;;;;;;22.65;5.10;;;;;;;;;;4426643;32;20025;-71
2022/11/25 14:03:16;;;;;;;23.33;5.57;;;;;;;;;;4418806;32;20110;-70
2022/11/25 14:05:47;;;;;;;19.17;4.95;;;;;;;;;;4427532;32;20144;-71
2022/11/25 14:08:18;;;;;;;21.30;5.40;;;;;;;;;;4426894;32;20105;-71
2022/11/25 14:10:44;;;;;;;25.30;5.32;;;;;;;;;;4427866;32;20412;-70
2022/11/25 14:13:09;;;;;;;;;;;;;;;;;;4428890;32;20087;-70
2022/11/25 14:15:46;;;;;;;23.42;5.25;;;;;;;;;;4427345;32;19951;-71
2022/11/25 14:18:11;;;;;;;;;;;;;;;;;;4427549;32;20440;-73
2022/11/25 14:20:39;;;;;;;23.15;4.37;;;;;;;;;;4427133;32;19963;-72
2022/11/25 14:23:13;;;;;;;22.77;4.00;;;;;;;;;;4425169;32;20399;-69
2022/11/25 14:25:52;;;;;;;22.27;5.72;;;;;;;;;;4425583;32;20093;-70
2022/11/25 14:28:17;;;;;;;23.15;5.10;;;;;;;;;;4425843;32;20033;-70
2022/11/25 14:30:42;;;;;;;;;;;;;;;;;;4427728;32;20022;-71
2022/11/25 14:33:09;;;;;;;19.12;4.57;;;;;;;;;;4426781;32;20349;-71
2022/11/25 14:35:52;;;;;;;33.03;4.82;;;;;;;;;;4425887;32;20184;-70
2022/11/25 14:38:26;;;;;;;24.67;4.47;;;;;;;;;;4418574;32;20428;-71
2022/11/25 14:40:56;;;;;;;25.25;4.32;;;;;;;;;;4418745;32;20034;-71
2022/11/25 14:43:23;;;;;;;19.75;3.83;;;;;;;;;;4428490;32;20655;-70
2022/11/25 14:46:07;;;;;;;21.58;5.00;;;;;;;;;;4426565;32;20029;-69
2022/11/25 14:48:33;;;;;;;20.45;3.70;;;;;;;;;;4427219;32;20078;-70
2022/11/25 14:50:58;;;;;;;;;;;;;;;;;;4428712;32;20069;-70
2022/11/25 14:53:24;;;;;;;19.75;3.75;;;;;;;;;;4426627;32;20000;-71
2022/11/25 14:55:49;;;;;;;17.95;3.37;;;;;;;;;;4426841;32;20066;-69
2022/11/25 14:58:14;;;;;;;;;;;;;;;;;;4427633;32;20029;-70
2022/11/25 15:00:59;;;;;;;16.87;4.25;;;;;;;;;;4425415;32;20314;-70
2022/11/25 15:03:24;;;;;;;14.23;3.33;;;;;;;;;;4427527;32;20163;-70
2022/11/25 15:05:49;;;;;;;;;;;;;;;;;;4428344;32;20033;-69
2022/11/25 15:08:16;;;;;;;24.67;3.65;;;;;;;;;;4427179;32;19951;-70
2022/11/25 15:10:58;;;;;;;15.30;4.45;;;;;;;;;;4424747;32;20071;-69
2022/11/25 15:13:23;;;;;;;17.30;4.03;;;;;;;;;;4426742;32;20409;-70